SMX1026 LIRF-LIMC
Flight info
| Callsign | SMX1026 |
|---|---|
| Flight time | 1h 18m |
| Altitude | 34000 |
| Route | NEMBO DCT ELB DCT NORNI DCT UPDIN DCT SPEZI DCT IDONA DCT MEBUR |
| Aircraft | E170/M-SDE3GILORVW/S |
Departure
| Time | 2026-05-05 19:14 |
|---|---|
| Airport | Rome–Fiumicino Leonardo da Vinci International Airport (LIRF) |
Arrival
| Time | 2026-05-05 20:32 |
|---|---|
| Airport | Milan Malpensa International Airport (LIMC) |
| Time | Latitude | Longitude | Altitude | Speed | Heading |
|---|---|---|---|---|---|
| 2026-05-05 18:45 | 41.79592 | 12.25767 | 14 ft | 0 kts | 116° |
| 2026-05-05 19:04 | 41.79598 | 12.25752 | 14 ft | 2 kts | 115° |
| 2026-05-05 19:04 | 41.79604 | 12.25734 | 14 ft | 2 kts | 116° |
| 2026-05-05 19:05 | 41.79609 | 12.25722 | 14 ft | 1 kts | 116° |
| 2026-05-05 19:05 | 41.79610 | 12.25706 | 14 ft | 2 kts | 61° |
| 2026-05-05 19:05 | 41.79604 | 12.25698 | 14 ft | 1 kts | 27° |
| 2026-05-05 19:05 | 41.79597 | 12.25694 | 14 ft | 0 kts | 24° |
| 2026-05-05 19:07 | 41.79599 | 12.25695 | 14 ft | 1 kts | 25° |
| 2026-05-05 19:08 | 41.79616 | 12.25707 | 14 ft | 5 kts | 26° |
| 2026-05-05 19:08 | 41.79669 | 12.25741 | 14 ft | 12 kts | 26° |
| 2026-05-05 19:08 | 41.79765 | 12.25801 | 14 ft | 17 kts | 25° |
| 2026-05-05 19:08 | 41.79832 | 12.25840 | 14 ft | 4 kts | 1° |
| 2026-05-05 19:09 | 41.79865 | 12.25822 | 14 ft | 6 kts | 5° |
| 2026-05-05 19:09 | 41.79917 | 12.25852 | 14 ft | 10 kts | 25° |
| 2026-05-05 19:09 | 41.80004 | 12.25906 | 14 ft | 17 kts | 25° |
| 2026-05-05 19:09 | 41.80126 | 12.25983 | 14 ft | 21 kts | 25° |
| 2026-05-05 19:10 | 41.80275 | 12.26073 | 14 ft | 24 kts | 25° |
| 2026-05-05 19:10 | 41.80412 | 12.26158 | 14 ft | 19 kts | 25° |
| 2026-05-05 19:10 | 41.80503 | 12.26200 | 14 ft | 14 kts | 41° |
| 2026-05-05 19:10 | 41.80550 | 12.26331 | 13 ft | 17 kts | 74° |
| 2026-05-05 19:11 | 41.80595 | 12.26498 | 13 ft | 22 kts | 69° |
| 2026-05-05 19:11 | 41.80661 | 12.26733 | 12 ft | 30 kts | 69° |
| 2026-05-05 19:11 | 41.80710 | 12.26907 | 12 ft | 17 kts | 70° |
| 2026-05-05 19:11 | 41.80746 | 12.27029 | 11 ft | 9 kts | 55° |
| 2026-05-05 19:12 | 41.80828 | 12.27030 | 11 ft | 16 kts | 343° |
| 2026-05-05 19:12 | 41.80899 | 12.26998 | 11 ft | 12 kts | 339° |
| 2026-05-05 19:12 | 41.80961 | 12.26930 | 11 ft | 11 kts | 269° |
| 2026-05-05 19:12 | 41.80924 | 12.26811 | 12 ft | 14 kts | 250° |
| 2026-05-05 19:13 | 41.80910 | 12.26759 | 12 ft | 7 kts | 249° |
| 2026-05-05 19:13 | 41.80882 | 12.26657 | 12 ft | 15 kts | 249° |
| 2026-05-05 19:13 | 41.80814 | 12.26412 | 13 ft | 58 kts | 249° |
| 2026-05-05 19:13 | 41.80589 | 12.25603 | 14 ft | 125 kts | 248° |
| 2026-05-05 19:14 | 41.80251 | 12.24315 | 196 ft | 157 kts | 248° |
| 2026-05-05 19:14 | 41.79890 | 12.22949 | 855 ft | 158 kts | 247° |
| 2026-05-05 19:14 | 41.79491 | 12.21594 | 1507 ft | 167 kts | 242° |
| 2026-05-05 19:14 | 41.79135 | 12.19914 | 1889 ft | 207 kts | 264° |
| 2026-05-05 19:15 | 41.79182 | 12.17843 | 2414 ft | 238 kts | 268° |
| 2026-05-05 19:15 | 41.79171 | 12.15562 | 3128 ft | 256 kts | 265° |
| 2026-05-05 19:15 | 41.79117 | 12.13149 | 4117 ft | 263 kts | 265° |
| 2026-05-05 19:15 | 41.79058 | 12.10766 | 5179 ft | 264 kts | 265° |
| 2026-05-05 19:16 | 41.79036 | 12.08288 | 6205 ft | 267 kts | 267° |
| 2026-05-05 19:16 | 41.79033 | 12.05841 | 7182 ft | 269 kts | 268° |
| 2026-05-05 19:16 | 41.79029 | 12.03360 | 8144 ft | 271 kts | 268° |
| 2026-05-05 19:16 | 41.79024 | 12.00841 | 9061 ft | 274 kts | 268° |
| 2026-05-05 19:17 | 41.79018 | 11.98295 | 9953 ft | 277 kts | 268° |
| 2026-05-05 19:17 | 41.79012 | 11.95728 | 10758 ft | 281 kts | 268° |
| 2026-05-05 19:17 | 41.79005 | 11.93074 | 11440 ft | 290 kts | 268° |
| 2026-05-05 19:17 | 41.78997 | 11.90360 | 12044 ft | 300 kts | 269° |
| 2026-05-05 19:18 | 41.78988 | 11.87547 | 12733 ft | 306 kts | 269° |
| 2026-05-05 19:18 | 41.78978 | 11.84709 | 13453 ft | 310 kts | 269° |
| 2026-05-05 19:18 | 41.78968 | 11.81814 | 14189 ft | 314 kts | 269° |
| 2026-05-05 19:18 | 41.78956 | 11.78890 | 14900 ft | 318 kts | 268° |
| 2026-05-05 19:19 | 41.78944 | 11.75930 | 15611 ft | 321 kts | 268° |
| 2026-05-05 19:19 | 41.78930 | 11.72930 | 16303 ft | 324 kts | 268° |
| 2026-05-05 19:19 | 41.78916 | 11.69942 | 16999 ft | 327 kts | 268° |
| 2026-05-05 19:19 | 41.78901 | 11.66889 | 17682 ft | 329 kts | 268° |
| 2026-05-05 19:20 | 41.78885 | 11.63845 | 18300 ft | 333 kts | 268° |
| 2026-05-05 19:20 | 41.78867 | 11.60723 | 18937 ft | 336 kts | 268° |
| 2026-05-05 19:20 | 41.78858 | 11.57579 | 19564 ft | 339 kts | 270° |
| 2026-05-05 19:20 | 41.79454 | 11.54511 | 20096 ft | 351 kts | 295° |
| 2026-05-05 19:21 | 41.80978 | 11.51920 | 20705 ft | 358 kts | 308° |
| 2026-05-05 19:21 | 41.82614 | 11.49456 | 21293 ft | 360 kts | 308° |
| 2026-05-05 19:21 | 41.84290 | 11.46910 | 21785 ft | 366 kts | 308° |
| 2026-05-05 19:21 | 41.85979 | 11.44334 | 22299 ft | 370 kts | 307° |
| 2026-05-05 19:22 | 41.87676 | 11.41744 | 22862 ft | 372 kts | 307° |
| 2026-05-05 19:22 | 41.89360 | 11.39166 | 23383 ft | 374 kts | 307° |
| 2026-05-05 19:22 | 41.91081 | 11.36531 | 23870 ft | 378 kts | 307° |
| 2026-05-05 19:22 | 41.92812 | 11.33878 | 24449 ft | 378 kts | 306° |
| 2026-05-05 19:23 | 41.94539 | 11.31230 | 25032 ft | 378 kts | 306° |
| 2026-05-05 19:23 | 41.96270 | 11.28572 | 25593 ft | 378 kts | 306° |
| 2026-05-05 19:23 | 41.98011 | 11.25896 | 26084 ft | 380 kts | 305° |
| 2026-05-05 19:23 | 41.99742 | 11.23233 | 26507 ft | 383 kts | 305° |
| 2026-05-05 19:24 | 42.01490 | 11.20543 | 26998 ft | 384 kts | 305° |
| 2026-05-05 19:24 | 42.03249 | 11.17834 | 27529 ft | 384 kts | 305° |
| 2026-05-05 19:24 | 42.04985 | 11.15155 | 27967 ft | 385 kts | 304° |
| 2026-05-05 19:24 | 42.06772 | 11.12396 | 28389 ft | 387 kts | 304° |
| 2026-05-05 19:25 | 42.08537 | 11.09670 | 28849 ft | 388 kts | 304° |
| 2026-05-05 19:25 | 42.10299 | 11.06944 | 29255 ft | 389 kts | 304° |
| 2026-05-05 19:25 | 42.12074 | 11.04196 | 29629 ft | 391 kts | 304° |
| 2026-05-05 19:25 | 42.13881 | 11.01396 | 30032 ft | 392 kts | 304° |
| 2026-05-05 19:26 | 42.15662 | 10.98634 | 30389 ft | 394 kts | 304° |
| 2026-05-05 19:26 | 42.17451 | 10.95857 | 30736 ft | 396 kts | 303° |
| 2026-05-05 19:26 | 42.19252 | 10.93056 | 31050 ft | 398 kts | 304° |
| 2026-05-05 19:26 | 42.21070 | 10.90231 | 31432 ft | 399 kts | 303° |
| 2026-05-05 19:27 | 42.22871 | 10.87427 | 31686 ft | 402 kts | 304° |
| 2026-05-05 19:27 | 42.24705 | 10.84568 | 31991 ft | 404 kts | 303° |
| 2026-05-05 19:27 | 42.26538 | 10.81711 | 32458 ft | 402 kts | 303° |
| 2026-05-05 19:27 | 42.28383 | 10.78885 | 32877 ft | 404 kts | 307° |
| 2026-05-05 19:28 | 42.30517 | 10.76409 | 33266 ft | 413 kts | 316° |
| 2026-05-05 19:28 | 42.32970 | 10.74331 | 33632 ft | 416 kts | 320° |
| 2026-05-05 19:28 | 42.35402 | 10.72275 | 33990 ft | 411 kts | 319° |
| 2026-05-05 19:28 | 42.37823 | 10.70196 | 33972 ft | 418 kts | 319° |
| 2026-05-05 19:29 | 42.42816 | 10.65887 | 33975 ft | 431 kts | 319° |
| 2026-05-05 19:29 | 42.47919 | 10.61472 | 33966 ft | 442 kts | 320° |
| 2026-05-05 19:30 | 42.53103 | 10.56978 | 33969 ft | 446 kts | 320° |
| 2026-05-05 19:30 | 42.58306 | 10.52459 | 33960 ft | 444 kts | 320° |
| 2026-05-05 19:31 | 42.63476 | 10.47958 | 33956 ft | 445 kts | 319° |
| 2026-05-05 19:31 | 42.68671 | 10.43426 | 33959 ft | 444 kts | 319° |
| 2026-05-05 19:32 | 42.73877 | 10.38909 | 33953 ft | 446 kts | 322° |
| 2026-05-05 19:32 | 42.79363 | 10.34842 | 33952 ft | 448 kts | 323° |
| 2026-05-05 19:33 | 42.84843 | 10.30717 | 33965 ft | 449 kts | 322° |
| 2026-05-05 19:33 | 42.90279 | 10.26613 | 33959 ft | 448 kts | 322° |
| 2026-05-05 19:34 | 42.95735 | 10.22485 | 33964 ft | 448 kts | 322° |
| 2026-05-05 19:35 | 43.03928 | 10.16269 | 33958 ft | 450 kts | 322° |
| 2026-05-05 19:35 | 43.09401 | 10.12106 | 33961 ft | 452 kts | 322° |
| 2026-05-05 19:36 | 43.14915 | 10.07903 | 33951 ft | 452 kts | 322° |
| 2026-05-05 19:36 | 43.20408 | 10.03708 | 33945 ft | 452 kts | 322° |
| 2026-05-05 19:37 | 43.25901 | 9.99504 | 33943 ft | 452 kts | 322° |
| 2026-05-05 19:37 | 43.31383 | 9.95305 | 33950 ft | 452 kts | 322° |
| 2026-05-05 19:38 | 43.36830 | 9.91126 | 33944 ft | 454 kts | 322° |
| 2026-05-05 19:38 | 43.42337 | 9.86883 | 33946 ft | 455 kts | 322° |
| 2026-05-05 19:39 | 43.47817 | 9.82650 | 33947 ft | 455 kts | 322° |
| 2026-05-05 19:39 | 43.53326 | 9.78387 | 33946 ft | 453 kts | 322° |
| 2026-05-05 19:40 | 43.58822 | 9.74123 | 33944 ft | 454 kts | 322° |
| 2026-05-05 19:40 | 43.64305 | 9.69861 | 33946 ft | 455 kts | 321° |
| 2026-05-05 19:41 | 43.69803 | 9.65579 | 33943 ft | 453 kts | 321° |
| 2026-05-05 19:41 | 43.75265 | 9.61314 | 33943 ft | 455 kts | 321° |
| 2026-05-05 19:42 | 43.80775 | 9.57007 | 33943 ft | 452 kts | 321° |
| 2026-05-05 19:42 | 43.86180 | 9.52774 | 33894 ft | 450 kts | 321° |
| 2026-05-05 19:42 | 43.88917 | 9.50626 | 33596 ft | 449 kts | 321° |
| 2026-05-05 19:43 | 43.91615 | 9.48509 | 33318 ft | 448 kts | 321° |
| 2026-05-05 19:43 | 43.94339 | 9.46367 | 33005 ft | 448 kts | 321° |
| 2026-05-05 19:43 | 43.97015 | 9.44286 | 32553 ft | 445 kts | 323° |
| 2026-05-05 19:43 | 43.99939 | 9.42588 | 32054 ft | 466 kts | 333° |
| 2026-05-05 19:44 | 44.03106 | 9.41486 | 31571 ft | 473 kts | 340° |
| 2026-05-05 19:44 | 44.06264 | 9.40504 | 31079 ft | 465 kts | 339° |
| 2026-05-05 19:44 | 44.09415 | 9.39476 | 30584 ft | 459 kts | 339° |
| 2026-05-05 19:44 | 44.12501 | 9.38457 | 30077 ft | 454 kts | 339° |
| 2026-05-05 19:45 | 44.14784 | 9.37701 | 29706 ft | 450 kts | 339° |
| 2026-05-05 19:45 | 44.17238 | 9.36885 | 29306 ft | 448 kts | 339° |
| 2026-05-05 19:45 | 44.20245 | 9.35886 | 28819 ft | 444 kts | 339° |
| 2026-05-05 19:45 | 44.23210 | 9.34901 | 28174 ft | 437 kts | 339° |
| 2026-05-05 19:46 | 44.26186 | 9.33909 | 27252 ft | 435 kts | 339° |
| 2026-05-05 19:46 | 44.27881 | 9.33342 | 26685 ft | 434 kts | 340° |
| 2026-05-05 19:46 | 44.30704 | 9.32401 | 25871 ft | 430 kts | 340° |
| 2026-05-05 19:46 | 44.33552 | 9.31450 | 24983 ft | 427 kts | 341° |
| 2026-05-05 19:47 | 44.36445 | 9.30483 | 24167 ft | 422 kts | 341° |
| 2026-05-05 19:47 | 44.39236 | 9.29551 | 23690 ft | 410 kts | 341° |
| 2026-05-05 19:47 | 44.42000 | 9.28626 | 23289 ft | 399 kts | 341° |
| 2026-05-05 19:47 | 44.44646 | 9.27740 | 22879 ft | 388 kts | 341° |
| 2026-05-05 19:48 | 44.47238 | 9.26870 | 22452 ft | 377 kts | 341° |
| 2026-05-05 19:48 | 44.49733 | 9.26032 | 22027 ft | 369 kts | 341° |
| 2026-05-05 19:48 | 44.52190 | 9.25206 | 21615 ft | 363 kts | 341° |
| 2026-05-05 19:48 | 44.54649 | 9.24378 | 21222 ft | 360 kts | 341° |
| 2026-05-05 19:49 | 44.57059 | 9.23565 | 20844 ft | 360 kts | 341° |
| 2026-05-05 19:49 | 44.58688 | 9.23017 | 20596 ft | 359 kts | 341° |
| 2026-05-05 19:49 | 44.61924 | 9.21926 | 20088 ft | 357 kts | 341° |
| 2026-05-05 19:49 | 44.64322 | 9.21117 | 19966 ft | 349 kts | 341° |
| 2026-05-05 19:50 | 44.66678 | 9.20320 | 19982 ft | 352 kts | 341° |
| 2026-05-05 19:50 | 44.69080 | 9.19507 | 19973 ft | 355 kts | 341° |
| 2026-05-05 19:50 | 44.71465 | 9.18700 | 19966 ft | 356 kts | 341° |
| 2026-05-05 19:50 | 44.73871 | 9.17872 | 19932 ft | 354 kts | 338° |
| 2026-05-05 19:51 | 44.75976 | 9.16301 | 19648 ft | 340 kts | 312° |
| 2026-05-05 19:51 | 44.77381 | 9.13742 | 19244 ft | 327 kts | 294° |
| 2026-05-05 19:51 | 44.78535 | 9.11010 | 18820 ft | 327 kts | 294° |
| 2026-05-05 19:51 | 44.79686 | 9.08271 | 18370 ft | 323 kts | 294° |
| 2026-05-05 19:52 | 44.80452 | 9.06438 | 18067 ft | 320 kts | 294° |
| 2026-05-05 19:52 | 44.81564 | 9.03773 | 17619 ft | 316 kts | 294° |
| 2026-05-05 19:52 | 44.82669 | 9.01116 | 17179 ft | 313 kts | 295° |
| 2026-05-05 19:52 | 44.83757 | 8.98497 | 16732 ft | 311 kts | 295° |
| 2026-05-05 19:53 | 44.84845 | 8.95879 | 16298 ft | 309 kts | 295° |
| 2026-05-05 19:53 | 44.85926 | 8.93273 | 15846 ft | 307 kts | 295° |
| 2026-05-05 19:53 | 44.86984 | 8.90721 | 15399 ft | 305 kts | 295° |
| 2026-05-05 19:53 | 44.88048 | 8.88151 | 14947 ft | 302 kts | 295° |
| 2026-05-05 19:54 | 44.89108 | 8.85589 | 14503 ft | 299 kts | 296° |
| 2026-05-05 19:54 | 44.90140 | 8.83091 | 14059 ft | 297 kts | 296° |
| 2026-05-05 19:54 | 44.91174 | 8.80590 | 13612 ft | 295 kts | 296° |
| 2026-05-05 19:54 | 44.92207 | 8.78087 | 13177 ft | 294 kts | 296° |
| 2026-05-05 19:55 | 44.93235 | 8.75591 | 12730 ft | 294 kts | 296° |
| 2026-05-05 19:55 | 44.94257 | 8.73110 | 12283 ft | 293 kts | 296° |
| 2026-05-05 19:55 | 44.95262 | 8.70669 | 11846 ft | 292 kts | 296° |
| 2026-05-05 19:55 | 44.96286 | 8.68179 | 11386 ft | 291 kts | 297° |
| 2026-05-05 19:56 | 44.97303 | 8.65704 | 10941 ft | 290 kts | 297° |
| 2026-05-05 19:56 | 44.98303 | 8.63266 | 10454 ft | 291 kts | 297° |
| 2026-05-05 19:56 | 44.99319 | 8.60812 | 9960 ft | 291 kts | 300° |
| 2026-05-05 19:56 | 45.00811 | 8.58879 | 9469 ft | 296 kts | 332° |
| 2026-05-05 19:57 | 45.02772 | 8.58148 | 9205 ft | 290 kts | 348° |
| 2026-05-05 19:57 | 45.04091 | 8.57790 | 8979 ft | 287 kts | 347° |
| 2026-05-05 19:57 | 45.06661 | 8.57084 | 8547 ft | 281 kts | 347° |
| 2026-05-05 19:57 | 45.08557 | 8.56561 | 8209 ft | 277 kts | 347° |
| 2026-05-05 19:58 | 45.10439 | 8.56039 | 7883 ft | 273 kts | 347° |
| 2026-05-05 19:58 | 45.12286 | 8.55527 | 7550 ft | 270 kts | 348° |
| 2026-05-05 19:58 | 45.14111 | 8.55020 | 7202 ft | 267 kts | 348° |
| 2026-05-05 19:58 | 45.15927 | 8.54516 | 6868 ft | 265 kts | 348° |
| 2026-05-05 19:59 | 45.17726 | 8.54016 | 6577 ft | 259 kts | 348° |
| 2026-05-05 19:59 | 45.19466 | 8.53532 | 6350 ft | 254 kts | 348° |
| 2026-05-05 19:59 | 45.21207 | 8.53047 | 6085 ft | 250 kts | 349° |
| 2026-05-05 19:59 | 45.22893 | 8.52579 | 5960 ft | 243 kts | 349° |
| 2026-05-05 20:00 | 45.24537 | 8.52124 | 5975 ft | 245 kts | 349° |
| 2026-05-05 20:00 | 45.26214 | 8.51658 | 5961 ft | 243 kts | 349° |
| 2026-05-05 20:00 | 45.27840 | 8.51207 | 5953 ft | 231 kts | 348° |
| 2026-05-05 20:00 | 45.29380 | 8.50777 | 5942 ft | 223 kts | 349° |
| 2026-05-05 20:01 | 45.30915 | 8.50379 | 5968 ft | 225 kts | 357° |
| 2026-05-05 20:01 | 45.32381 | 8.50971 | 5996 ft | 224 kts | 43° |
| 2026-05-05 20:01 | 45.33186 | 8.52809 | 6011 ft | 221 kts | 79° |
| 2026-05-05 20:01 | 45.33495 | 8.54944 | 5982 ft | 222 kts | 81° |
| 2026-05-05 20:02 | 45.33801 | 8.57075 | 5977 ft | 219 kts | 81° |
| 2026-05-05 20:02 | 45.34102 | 8.59214 | 5979 ft | 219 kts | 81° |
| 2026-05-05 20:02 | 45.34399 | 8.61348 | 5978 ft | 220 kts | 81° |
| 2026-05-05 20:02 | 45.34668 | 8.63476 | 5967 ft | 220 kts | 91° |
| 2026-05-05 20:03 | 45.34212 | 8.65466 | 5997 ft | 213 kts | 135° |
| 2026-05-05 20:03 | 45.32953 | 8.66456 | 6004 ft | 211 kts | 168° |
| 2026-05-05 20:03 | 45.31506 | 8.66926 | 5964 ft | 212 kts | 168° |
| 2026-05-05 20:03 | 45.30085 | 8.67363 | 5972 ft | 211 kts | 169° |
| 2026-05-05 20:04 | 45.28642 | 8.67787 | 5970 ft | 212 kts | 169° |
| 2026-05-05 20:04 | 45.27187 | 8.68199 | 5965 ft | 211 kts | 170° |
| 2026-05-05 20:04 | 45.25740 | 8.68574 | 5971 ft | 211 kts | 170° |
| 2026-05-05 20:04 | 45.24305 | 8.68944 | 5968 ft | 211 kts | 170° |
| 2026-05-05 20:05 | 45.22847 | 8.69321 | 5969 ft | 211 kts | 170° |
| 2026-05-05 20:05 | 45.21978 | 8.69546 | 5972 ft | 210 kts | 170° |
| 2026-05-05 20:05 | 45.20662 | 8.69892 | 5967 ft | 209 kts | 170° |
| 2026-05-05 20:05 | 45.19221 | 8.70278 | 5963 ft | 209 kts | 170° |
| 2026-05-05 20:06 | 45.17802 | 8.70660 | 5955 ft | 208 kts | 170° |
| 2026-05-05 20:06 | 45.16376 | 8.71041 | 5958 ft | 209 kts | 170° |
| 2026-05-05 20:06 | 45.14933 | 8.71425 | 5954 ft | 209 kts | 170° |
| 2026-05-05 20:06 | 45.13493 | 8.71811 | 5957 ft | 210 kts | 170° |
| 2026-05-05 20:07 | 45.12074 | 8.72197 | 5960 ft | 209 kts | 170° |
| 2026-05-05 20:07 | 45.10643 | 8.72592 | 5952 ft | 210 kts | 170° |
| 2026-05-05 20:07 | 45.09201 | 8.72991 | 5953 ft | 209 kts | 170° |
| 2026-05-05 20:07 | 45.07778 | 8.73389 | 5957 ft | 210 kts | 170° |
| 2026-05-05 20:08 | 45.06338 | 8.73794 | 5953 ft | 210 kts | 170° |
| 2026-05-05 20:08 | 45.04901 | 8.74199 | 5949 ft | 209 kts | 170° |
| 2026-05-05 20:08 | 45.03477 | 8.74599 | 5955 ft | 211 kts | 170° |
| 2026-05-05 20:08 | 45.02042 | 8.75001 | 5950 ft | 210 kts | 171° |
| 2026-05-05 20:09 | 45.00607 | 8.75412 | 5945 ft | 211 kts | 170° |
| 2026-05-05 20:09 | 44.99166 | 8.75828 | 5941 ft | 209 kts | 170° |
| 2026-05-05 20:09 | 44.97749 | 8.76236 | 5950 ft | 210 kts | 170° |
| 2026-05-05 20:09 | 44.96311 | 8.76652 | 5942 ft | 210 kts | 170° |
| 2026-05-05 20:10 | 44.94880 | 8.77068 | 5948 ft | 209 kts | 170° |
| 2026-05-05 20:10 | 44.93456 | 8.77478 | 5944 ft | 208 kts | 170° |
| 2026-05-05 20:10 | 44.92036 | 8.77888 | 5962 ft | 209 kts | 170° |
| 2026-05-05 20:10 | 44.90622 | 8.78295 | 5942 ft | 208 kts | 170° |
| 2026-05-05 20:11 | 44.89206 | 8.78702 | 5945 ft | 209 kts | 170° |
| 2026-05-05 20:11 | 44.87778 | 8.79113 | 5948 ft | 209 kts | 170° |
| 2026-05-05 20:11 | 44.86341 | 8.79524 | 5952 ft | 209 kts | 170° |
| 2026-05-05 20:11 | 44.84914 | 8.79936 | 5952 ft | 208 kts | 170° |
| 2026-05-05 20:12 | 44.83503 | 8.80342 | 5949 ft | 209 kts | 170° |
| 2026-05-05 20:12 | 44.82063 | 8.80763 | 5947 ft | 209 kts | 170° |
| 2026-05-05 20:12 | 44.80644 | 8.81185 | 5947 ft | 209 kts | 170° |
| 2026-05-05 20:12 | 44.79219 | 8.81609 | 5946 ft | 210 kts | 170° |
| 2026-05-05 20:13 | 44.77788 | 8.82037 | 5948 ft | 210 kts | 170° |
| 2026-05-05 20:13 | 44.76365 | 8.82462 | 5950 ft | 210 kts | 170° |
| 2026-05-05 20:13 | 44.74933 | 8.82888 | 5950 ft | 209 kts | 172° |
| 2026-05-05 20:13 | 44.73534 | 8.82635 | 5955 ft | 206 kts | 212° |
| 2026-05-05 20:14 | 44.72689 | 8.81060 | 5992 ft | 212 kts | 255° |
| 2026-05-05 20:14 | 44.72884 | 8.79021 | 5990 ft | 221 kts | 298° |
| 2026-05-05 20:14 | 44.74081 | 8.77639 | 5993 ft | 230 kts | 342° |
| 2026-05-05 20:14 | 44.75599 | 8.77685 | 5987 ft | 233 kts | 24° |
| 2026-05-05 20:15 | 44.76779 | 8.79133 | 5986 ft | 231 kts | 66° |
| 2026-05-05 20:15 | 44.77251 | 8.81277 | 5988 ft | 229 kts | 70° |
| 2026-05-05 20:15 | 44.77974 | 8.83276 | 5961 ft | 229 kts | 63° |
| 2026-05-05 20:15 | 44.78735 | 8.85245 | 5948 ft | 228 kts | 63° |
| 2026-05-05 20:16 | 44.79485 | 8.87194 | 5949 ft | 228 kts | 64° |
| 2026-05-05 20:16 | 44.80247 | 8.89179 | 5949 ft | 229 kts | 63° |
| 2026-05-05 20:16 | 44.80994 | 8.91123 | 5948 ft | 230 kts | 64° |
| 2026-05-05 20:16 | 44.81762 | 8.93121 | 5949 ft | 229 kts | 63° |
| 2026-05-05 20:17 | 44.82512 | 8.95085 | 5951 ft | 230 kts | 63° |
| 2026-05-05 20:17 | 44.83270 | 8.97068 | 5948 ft | 229 kts | 63° |
| 2026-05-05 20:17 | 44.84027 | 8.99047 | 5949 ft | 230 kts | 63° |
| 2026-05-05 20:17 | 44.84781 | 9.01022 | 5946 ft | 230 kts | 63° |
| 2026-05-05 20:18 | 44.85572 | 9.02995 | 5945 ft | 231 kts | 53° |
| 2026-05-05 20:18 | 44.86889 | 9.04231 | 5975 ft | 232 kts | 9° |
| 2026-05-05 20:18 | 44.88444 | 9.04002 | 5993 ft | 229 kts | 335° |
| 2026-05-05 20:18 | 44.89908 | 9.03097 | 5956 ft | 230 kts | 333° |
| 2026-05-05 20:19 | 44.91353 | 9.02185 | 5948 ft | 228 kts | 333° |
| 2026-05-05 20:19 | 44.92810 | 9.01258 | 5948 ft | 228 kts | 333° |
| 2026-05-05 20:19 | 44.94254 | 9.00341 | 5944 ft | 228 kts | 333° |
| 2026-05-05 20:19 | 44.95690 | 8.99427 | 5952 ft | 227 kts | 333° |
| 2026-05-05 20:20 | 44.97137 | 8.98507 | 5953 ft | 227 kts | 333° |
| 2026-05-05 20:20 | 44.98573 | 8.97588 | 5951 ft | 226 kts | 333° |
| 2026-05-05 20:20 | 45.00001 | 8.96683 | 5952 ft | 227 kts | 333° |
| 2026-05-05 20:20 | 45.01453 | 8.95762 | 5962 ft | 227 kts | 333° |
| 2026-05-05 20:21 | 45.02877 | 8.94856 | 5955 ft | 227 kts | 333° |
| 2026-05-05 20:21 | 45.04305 | 8.93932 | 5971 ft | 226 kts | 333° |
| 2026-05-05 20:21 | 45.05735 | 8.93003 | 5973 ft | 227 kts | 333° |
| 2026-05-05 20:21 | 45.07187 | 8.92064 | 5926 ft | 224 kts | 333° |
| 2026-05-05 20:22 | 45.08595 | 8.91152 | 5715 ft | 224 kts | 334° |
| 2026-05-05 20:22 | 45.10097 | 8.90542 | 5420 ft | 226 kts | 344° |
| 2026-05-05 20:22 | 45.11621 | 8.90000 | 5168 ft | 226 kts | 345° |
| 2026-05-05 20:22 | 45.13126 | 8.89467 | 4961 ft | 222 kts | 345° |
| 2026-05-05 20:23 | 45.14627 | 8.88937 | 4705 ft | 223 kts | 345° |
| 2026-05-05 20:23 | 45.16139 | 8.88404 | 4489 ft | 221 kts | 345° |
| 2026-05-05 20:23 | 45.17616 | 8.87882 | 4243 ft | 221 kts | 345° |
| 2026-05-05 20:23 | 45.19096 | 8.87360 | 4017 ft | 219 kts | 346° |
| 2026-05-05 20:24 | 45.20581 | 8.86835 | 3972 ft | 216 kts | 346° |
| 2026-05-05 20:24 | 45.22047 | 8.86317 | 3974 ft | 219 kts | 346° |
| 2026-05-05 20:24 | 45.23533 | 8.85792 | 3974 ft | 219 kts | 346° |
| 2026-05-05 20:24 | 45.25020 | 8.85266 | 3970 ft | 220 kts | 346° |
| 2026-05-05 20:25 | 45.26502 | 8.84742 | 3971 ft | 219 kts | 346° |
| 2026-05-05 20:25 | 45.27975 | 8.84221 | 3972 ft | 220 kts | 346° |
| 2026-05-05 20:25 | 45.29466 | 8.83692 | 3973 ft | 220 kts | 346° |
| 2026-05-05 20:25 | 45.30941 | 8.83170 | 3969 ft | 219 kts | 346° |
| 2026-05-05 20:26 | 45.32427 | 8.82643 | 3969 ft | 219 kts | 346° |
| 2026-05-05 20:26 | 45.33894 | 8.82123 | 3973 ft | 219 kts | 346° |
| 2026-05-05 20:26 | 45.35389 | 8.81592 | 3979 ft | 218 kts | 346° |
| 2026-05-05 20:26 | 45.36842 | 8.81076 | 3978 ft | 218 kts | 346° |
| 2026-05-05 20:27 | 45.38330 | 8.80547 | 3977 ft | 217 kts | 346° |
| 2026-05-05 20:27 | 45.39774 | 8.79983 | 3984 ft | 216 kts | 344° |
| 2026-05-05 20:27 | 45.41233 | 8.79445 | 3998 ft | 216 kts | 347° |
| 2026-05-05 20:27 | 45.42693 | 8.78982 | 4012 ft | 217 kts | 349° |
| 2026-05-05 20:28 | 45.44145 | 8.78556 | 4051 ft | 204 kts | 349° |
| 2026-05-05 20:28 | 45.45493 | 8.78175 | 3943 ft | 196 kts | 350° |
| 2026-05-05 20:28 | 45.46751 | 8.77825 | 3754 ft | 178 kts | 350° |
| 2026-05-05 20:28 | 45.47981 | 8.77486 | 3501 ft | 180 kts | 351° |
| 2026-05-05 20:29 | 45.49211 | 8.77148 | 3241 ft | 179 kts | 351° |
| 2026-05-05 20:29 | 45.50419 | 8.76816 | 2986 ft | 177 kts | 351° |
| 2026-05-05 20:29 | 45.51635 | 8.76483 | 2731 ft | 176 kts | 350° |
| 2026-05-05 20:29 | 45.52830 | 8.76155 | 2486 ft | 174 kts | 350° |
| 2026-05-05 20:30 | 45.53992 | 8.75835 | 2243 ft | 163 kts | 350° |
| 2026-05-05 20:30 | 45.55033 | 8.75549 | 2017 ft | 144 kts | 350° |
| 2026-05-05 20:30 | 45.55956 | 8.75295 | 1805 ft | 128 kts | 350° |
| 2026-05-05 20:30 | 45.56809 | 8.75060 | 1653 ft | 123 kts | 350° |
| 2026-05-05 20:31 | 45.57659 | 8.74827 | 1513 ft | 127 kts | 350° |
| 2026-05-05 20:31 | 45.58525 | 8.74588 | 1341 ft | 125 kts | 350° |
| 2026-05-05 20:31 | 45.59366 | 8.74356 | 1169 ft | 122 kts | 349° |
| 2026-05-05 20:31 | 45.60202 | 8.74118 | 1019 ft | 122 kts | 349° |
| 2026-05-05 20:32 | 45.61038 | 8.73889 | 864 ft | 123 kts | 350° |
| 2026-05-05 20:32 | 45.61871 | 8.73667 | 718 ft | 121 kts | 350° |
| 2026-05-05 20:32 | 45.62635 | 8.73459 | 721 ft | 93 kts | 348° |
| 2026-05-05 20:32 | 45.62986 | 8.73357 | 728 ft | 27 kts | 342° |
| 2026-05-05 20:33 | 45.63137 | 8.73252 | 732 ft | 22 kts | 322° |
| 2026-05-05 20:33 | 45.63233 | 8.73125 | 734 ft | 14 kts | 309° |
| 2026-05-05 20:33 | 45.63301 | 8.72986 | 736 ft | 20 kts | 304° |
| 2026-05-05 20:33 | 45.63383 | 8.72811 | 740 ft | 15 kts | 301° |
| 2026-05-05 20:34 | 45.63411 | 8.72633 | 741 ft | 22 kts | 263° |
| 2026-05-05 20:34 | 45.63381 | 8.72406 | 742 ft | 14 kts | 257° |
| 2026-05-05 20:34 | 45.63365 | 8.72295 | 742 ft | 11 kts | 259° |
| 2026-05-05 20:34 | 45.63356 | 8.72231 | 742 ft | 3 kts | 258° |
| 2026-05-05 20:35 | 45.63349 | 8.72181 | 742 ft | 4 kts | 259° |
| 2026-05-05 20:35 | 45.63341 | 8.72127 | 742 ft | 7 kts | 260° |
| 2026-05-05 20:35 | 45.63336 | 8.72085 | 742 ft | 4 kts | 259° |
| 2026-05-05 20:35 | 45.63328 | 8.72029 | 742 ft | 7 kts | 259° |
| 2026-05-05 20:36 | 45.63292 | 8.71968 | 742 ft | 10 kts | 184° |
| 2026-05-05 20:36 | 45.63210 | 8.71986 | 741 ft | 14 kts | 172° |
| 2026-05-05 20:36 | 45.63111 | 8.72002 | 738 ft | 12 kts | 167° |
| 2026-05-05 20:36 | 45.63027 | 8.72020 | 737 ft | 11 kts | 195° |
| 2026-05-05 20:37 | 45.62989 | 8.71916 | 736 ft | 11 kts | 258° |
| 2026-05-05 20:37 | 45.62976 | 8.71818 | 736 ft | 10 kts | 260° |
| 2026-05-05 20:37 | 45.62946 | 8.71757 | 736 ft | 8 kts | 190° |
| 2026-05-05 20:37 | 45.62908 | 8.71783 | 736 ft | 5 kts | 104° |
| 2026-05-05 20:38 | 45.62913 | 8.71844 | 735 ft | 4 kts | 81° |
| 2026-05-05 20:38 | 45.62916 | 8.71866 | 735 ft | 0 kts | 78° |